YCCY

Cloncurry Airport

Cloncurry, Australia
METAR YCCY 170630Z AUTO 11017G28KT 050V120 9999 // NCD 42/07 Q1003
Observed Flight Rules
Jan-17 @ 06:30 UTC (25 minutes ago) Visual Flight Rules
Wind Visibility Clouds
110° at 17 knots
 Gusting to 28 knots
10,000+ meters
  • Clear skies
Temperatures Readings
Current 42°C / 108°F
Dewpoint 7°C / 45°F
Humidity 12%
Altimeter 29.62" Hg
Pressure 1002.92 hPa
Elevation 570
METAR YCCY 170630Z AUTO 11017G28KT 050V120 9999 // NCD 42/07 Q1003
Observed Flight Rules
Jan-17 @ 06:30 UTC
(25 minutes ago)
VFR
Wind Visibility
110° at 17 knots
 Gusting to 28 knots
10,000+ meters
Clouds
  • Clear skies
Temperature Dewpoint
42°C / 108°F 7°C / 45°F
Humidity Altimeter Pressure
12% 29.62" Hg 1002.92 hPa